sensor_id;sensor_type;location;lat;lon;timestamp;P1;durP1;ratioP1;P2;durP2;ratioP2
23728;SDS011;12045;60.214;24.724;2023-07-20T00:02:28;8.73;;;1.80;;
23728;SDS011;12045;60.214;24.724;2023-07-20T00:04:57;4.07;;;1.92;;
23728;SDS011;12045;60.214;24.724;2023-07-20T00:07:25;4.57;;;1.80;;
23728;SDS011;12045;60.214;24.724;2023-07-20T00:09:53;3.75;;;1.85;;
23728;SDS011;12045;60.214;24.724;2023-07-20T00:12:25;3.97;;;1.85;;
23728;SDS011;12045;60.214;24.724;2023-07-20T00:15:08;3.55;;;1.85;;
23728;SDS011;12045;60.214;24.724;2023-07-20T00:17:36;4.20;;;1.90;;
23728;SDS011;12045;60.214;24.724;2023-07-20T00:20:05;7.68;;;2.00;;
23728;SDS011;12045;60.214;24.724;2023-07-20T00:22:34;3.40;;;2.10;;
23728;SDS011;12045;60.214;24.724;2023-07-20T00:25:02;4.18;;;1.88;;
23728;SDS011;12045;60.214;24.724;2023-07-20T00:27:30;5.45;;;2.17;;
23728;SDS011;12045;60.214;24.724;2023-07-20T00:29:58;3.33;;;1.88;;
23728;SDS011;12045;60.214;24.724;2023-07-20T00:32:34;6.53;;;2.30;;
23728;SDS011;12045;60.214;24.724;2023-07-20T00:35:03;4.18;;;1.95;;
23728;SDS011;12045;60.214;24.724;2023-07-20T00:37:37;3.65;;;2.10;;
23728;SDS011;12045;60.214;24.724;2023-07-20T00:40:08;5.53;;;2.13;;
23728;SDS011;12045;60.214;24.724;2023-07-20T00:42:36;4.32;;;2.05;;
23728;SDS011;12045;60.214;24.724;2023-07-20T00:45:07;4.45;;;2.20;;
23728;SDS011;12045;60.214;24.724;2023-07-20T00:47:41;4.53;;;2.40;;
23728;SDS011;12045;60.214;24.724;2023-07-20T00:50:12;5.80;;;2.28;;
23728;SDS011;12045;60.214;24.724;2023-07-20T00:52:44;6.32;;;2.30;;
23728;SDS011;12045;60.214;24.724;2023-07-20T00:55:14;5.47;;;2.47;;
23728;SDS011;12045;60.214;24.724;2023-07-20T00:57:46;5.78;;;2.25;;
23728;SDS011;12045;60.214;24.724;2023-07-20T01:00:18;4.72;;;2.22;;
23728;SDS011;12045;60.214;24.724;2023-07-20T01:02:46;3.60;;;2.25;;
23728;SDS011;12045;60.214;24.724;2023-07-20T01:05:17;6.28;;;2.22;;
23728;SDS011;12045;60.214;24.724;2023-07-20T01:07:55;5.97;;;2.38;;
23728;SDS011;12045;60.214;24.724;2023-07-20T01:10:33;10.05;;;2.60;;
23728;SDS011;12045;60.214;24.724;2023-07-20T01:13:14;5.13;;;2.53;;
23728;SDS011;12045;60.214;24.724;2023-07-20T01:15:57;5.05;;;2.30;;
23728;SDS011;12045;60.214;24.724;2023-07-20T01:18:31;6.65;;;2.20;;
23728;SDS011;12045;60.214;24.724;2023-07-20T01:21:03;8.82;;;2.10;;
23728;SDS011;12045;60.214;24.724;2023-07-20T01:32:09;4.47;;;2.35;;
23728;SDS011;12045;60.214;24.724;2023-07-20T01:34:49;6.78;;;2.08;;
23728;SDS011;12045;60.214;24.724;2023-07-20T01:37:22;7.00;;;2.20;;
23728;SDS011;12045;60.214;24.724;2023-07-20T01:39:55;6.22;;;2.13;;
23728;SDS011;12045;60.214;24.724;2023-07-20T01:42:30;5.97;;;2.03;;
23728;SDS011;12045;60.214;24.724;2023-07-20T01:44:59;5.50;;;2.45;;
23728;SDS011;12045;60.214;24.724;2023-07-20T01:47:28;5.07;;;2.45;;
23728;SDS011;12045;60.214;24.724;2023-07-20T01:49:57;5.07;;;2.10;;
23728;SDS011;12045;60.214;24.724;2023-07-20T01:52:26;4.93;;;1.95;;
23728;SDS011;12045;60.214;24.724;2023-07-20T01:54:55;9.40;;;2.17;;
23728;SDS011;12045;60.214;24.724;2023-07-20T01:57:24;6.43;;;2.13;;
23728;SDS011;12045;60.214;24.724;2023-07-20T01:59:53;6.40;;;2.00;;
23728;SDS011;12045;60.214;24.724;2023-07-20T02:02:26;6.55;;;2.35;;
23728;SDS011;12045;60.214;24.724;2023-07-20T02:04:57;6.30;;;2.13;;
23728;SDS011;12045;60.214;24.724;2023-07-20T02:07:24;7.03;;;2.20;;
23728;SDS011;12045;60.214;24.724;2023-07-20T02:09:52;6.05;;;1.95;;
23728;SDS011;12045;60.214;24.724;2023-07-20T02:12:22;5.35;;;2.05;;
23728;SDS011;12045;60.214;24.724;2023-07-20T02:14:54;6.80;;;2.80;;
23728;SDS011;12045;60.214;24.724;2023-07-20T02:17:23;4.50;;;2.30;;
23728;SDS011;12045;60.214;24.724;2023-07-20T02:19:59;4.70;;;2.17;;
23728;SDS011;12045;60.214;24.724;2023-07-20T02:22:28;8.75;;;2.60;;
23728;SDS011;12045;60.214;24.724;2023-07-20T02:24:55;8.52;;;2.40;;
23728;SDS011;12045;60.214;24.724;2023-07-20T02:27:31;5.43;;;2.13;;
23728;SDS011;12045;60.214;24.724;2023-07-20T02:29:59;5.78;;;2.63;;
23728;SDS011;12045;60.214;24.724;2023-07-20T02:32:27;4.28;;;2.25;;
23728;SDS011;12045;60.214;24.724;2023-07-20T02:35:00;6.18;;;2.10;;
23728;SDS011;12045;60.214;24.724;2023-07-20T02:37:28;5.97;;;2.45;;
23728;SDS011;12045;60.214;24.724;2023-07-20T02:39:56;7.53;;;2.17;;
23728;SDS011;12045;60.214;24.724;2023-07-20T02:42:24;6.03;;;2.38;;
23728;SDS011;12045;60.214;24.724;2023-07-20T02:44:55;5.70;;;2.50;;
23728;SDS011;12045;60.214;24.724;2023-07-20T02:47:28;7.25;;;1.95;;
23728;SDS011;12045;60.214;24.724;2023-07-20T02:49:57;5.40;;;2.00;;
23728;SDS011;12045;60.214;24.724;2023-07-20T02:52:27;6.28;;;2.47;;
23728;SDS011;12045;60.214;24.724;2023-07-20T02:54:57;7.75;;;2.25;;
23728;SDS011;12045;60.214;24.724;2023-07-20T02:57:27;6.57;;;2.58;;
23728;SDS011;12045;60.214;24.724;2023-07-20T02:59:55;6.22;;;2.33;;
23728;SDS011;12045;60.214;24.724;2023-07-20T03:02:23;4.45;;;2.40;;
23728;SDS011;12045;60.214;24.724;2023-07-20T03:04:54;5.78;;;2.25;;
23728;SDS011;12045;60.214;24.724;2023-07-20T03:07:26;4.38;;;2.15;;
23728;SDS011;12045;60.214;24.724;2023-07-20T03:10:03;9.32;;;2.50;;
23728;SDS011;12045;60.214;24.724;2023-07-20T03:12:35;4.85;;;2.47;;
23728;SDS011;12045;60.214;24.724;2023-07-20T03:15:18;6.53;;;2.55;;
23728;SDS011;12045;60.214;24.724;2023-07-20T03:17:47;8.77;;;2.50;;
23728;SDS011;12045;60.214;24.724;2023-07-20T03:20:18;4.72;;;2.38;;
23728;SDS011;12045;60.214;24.724;2023-07-20T03:22:48;8.02;;;2.88;;
23728;SDS011;12045;60.214;24.724;2023-07-20T03:25:21;5.60;;;2.60;;
23728;SDS011;12045;60.214;24.724;2023-07-20T03:27:55;8.82;;;3.08;;
23728;SDS011;12045;60.214;24.724;2023-07-20T03:30:23;5.63;;;3.05;;
23728;SDS011;12045;60.214;24.724;2023-07-20T03:32:52;10.88;;;3.63;;
23728;SDS011;12045;60.214;24.724;2023-07-20T03:35:21;9.30;;;3.83;;
23728;SDS011;12045;60.214;24.724;2023-07-20T03:37:52;6.10;;;3.63;;
23728;SDS011;12045;60.214;24.724;2023-07-20T03:40:22;11.63;;;4.45;;
23728;SDS011;12045;60.214;24.724;2023-07-20T03:42:52;14.95;;;5.45;;
23728;SDS011;12045;60.214;24.724;2023-07-20T03:45:19;12.73;;;4.97;;
23728;SDS011;12045;60.214;24.724;2023-07-20T03:47:51;14.02;;;4.82;;
23728;SDS011;12045;60.214;24.724;2023-07-20T03:50:18;12.98;;;4.65;;
23728;SDS011;12045;60.214;24.724;2023-07-20T03:52:47;7.32;;;3.20;;
23728;SDS011;12045;60.214;24.724;2023-07-20T03:55:16;12.32;;;5.05;;
23728;SDS011;12045;60.214;24.724;2023-07-20T03:57:45;15.27;;;4.90;;
23728;SDS011;12045;60.214;24.724;2023-07-20T04:00:15;10.68;;;4.90;;
23728;SDS011;12045;60.214;24.724;2023-07-20T04:02:44;11.18;;;4.75;;
23728;SDS011;12045;60.214;24.724;2023-07-20T04:05:16;8.68;;;4.43;;
23728;SDS011;12045;60.214;24.724;2023-07-20T04:07:45;14.00;;;5.50;;
23728;SDS011;12045;60.214;24.724;2023-07-20T04:10:14;13.07;;;6.00;;
23728;SDS011;12045;60.214;24.724;2023-07-20T04:12:41;12.60;;;5.47;;
23728;SDS011;12045;60.214;24.724;2023-07-20T04:15:14;14.20;;;6.13;;
23728;SDS011;12045;60.214;24.724;2023-07-20T04:17:42;12.30;;;5.97;;
23728;SDS011;12045;60.214;24.724;2023-07-20T04:20:10;12.90;;;6.30;;
23728;SDS011;12045;60.214;24.724;2023-07-20T04:22:38;12.35;;;5.53;;
23728;SDS011;12045;60.214;24.724;2023-07-20T04:25:07;12.90;;;6.22;;
23728;SDS011;12045;60.214;24.724;2023-07-20T04:27:36;13.85;;;6.45;;
23728;SDS011;12045;60.214;24.724;2023-07-20T04:30:03;20.52;;;7.82;;
23728;SDS011;12045;60.214;24.724;2023-07-20T04:32:35;14.90;;;7.18;;
23728;SDS011;12045;60.214;24.724;2023-07-20T04:35:06;19.33;;;8.60;;
23728;SDS011;12045;60.214;24.724;2023-07-20T04:54:00;14.48;;;6.18;;
23728;SDS011;12045;60.214;24.724;2023-07-20T04:56:29;12.38;;;6.57;;
23728;SDS011;12045;60.214;24.724;2023-07-20T04:58:57;11.95;;;6.65;;
23728;SDS011;12045;60.214;24.724;2023-07-20T05:01:27;13.85;;;6.10;;
23728;SDS011;12045;60.214;24.724;2023-07-20T05:03:55;11.25;;;5.53;;
23728;SDS011;12045;60.214;24.724;2023-07-20T05:06:24;17.10;;;7.00;;
23728;SDS011;12045;60.214;24.724;2023-07-20T05:08:53;11.02;;;6.07;;
23728;SDS011;12045;60.214;24.724;2023-07-20T05:11:20;12.20;;;4.82;;
23728;SDS011;12045;60.214;24.724;2023-07-20T05:13:48;7.88;;;5.32;;
23728;SDS011;12045;60.214;24.724;2023-07-20T05:16:17;9.30;;;4.88;;
23728;SDS011;12045;60.214;24.724;2023-07-20T05:18:45;6.65;;;4.32;;
23728;SDS011;12045;60.214;24.724;2023-07-20T05:45:54;4.28;;;2.45;;
23728;SDS011;12045;60.214;24.724;2023-07-20T05:55:10;3.45;;;2.08;;
23728;SDS011;12045;60.214;24.724;2023-07-20T05:57:38;3.45;;;2.20;;
23728;SDS011;12045;60.214;24.724;2023-07-20T06:00:09;5.15;;;2.15;;
23728;SDS011;12045;60.214;24.724;2023-07-20T06:02:41;4.10;;;2.38;;
23728;SDS011;12045;60.214;24.724;2023-07-20T06:05:12;3.60;;;1.80;;
23728;SDS011;12045;60.214;24.724;2023-07-20T06:07:40;2.60;;;1.70;;
23728;SDS011;12045;60.214;24.724;2023-07-20T06:10:08;3.58;;;1.63;;
23728;SDS011;12045;60.214;24.724;2023-07-20T06:12:35;3.33;;;1.83;;
23728;SDS011;12045;60.214;24.724;2023-07-20T06:15:04;2.22;;;1.55;;
23728;SDS011;12045;60.214;24.724;2023-07-20T06:17:33;2.78;;;2.05;;
23728;SDS011;12045;60.214;24.724;2023-07-20T06:20:05;4.93;;;2.38;;
23728;SDS011;12045;60.214;24.724;2023-07-20T06:22:34;7.45;;;2.92;;
23728;SDS011;12045;60.214;24.724;2023-07-20T06:25:05;4.45;;;2.47;;
23728;SDS011;12045;60.214;24.724;2023-07-20T06:27:34;4.35;;;2.30;;
23728;SDS011;12045;60.214;24.724;2023-07-20T06:30:04;3.50;;;2.20;;
23728;SDS011;12045;60.214;24.724;2023-07-20T06:32:32;4.47;;;2.20;;
23728;SDS011;12045;60.214;24.724;2023-07-20T06:35:01;4.03;;;2.45;;
23728;SDS011;12045;60.214;24.724;2023-07-20T06:37:31;4.32;;;2.63;;
23728;SDS011;12045;60.214;24.724;2023-07-20T06:39:59;4.43;;;2.20;;
23728;SDS011;12045;60.214;24.724;2023-07-20T06:42:40;6.13;;;2.50;;
23728;SDS011;12045;60.214;24.724;2023-07-20T06:45:14;5.97;;;2.38;;
23728;SDS011;12045;60.214;24.724;2023-07-20T06:47:45;2.78;;;1.70;;
23728;SDS011;12045;60.214;24.724;2023-07-20T06:50:13;4.22;;;1.80;;
23728;SDS011;12045;60.214;24.724;2023-07-20T06:52:44;3.60;;;1.50;;
23728;SDS011;12045;60.214;24.724;2023-07-20T06:55:15;3.22;;;1.50;;
23728;SDS011;12045;60.214;24.724;2023-07-20T06:57:50;3.05;;;1.60;;
23728;SDS011;12045;60.214;24.724;2023-07-20T07:00:27;3.17;;;1.60;;
23728;SDS011;12045;60.214;24.724;2023-07-20T07:02:56;5.07;;;1.60;;
23728;SDS011;12045;60.214;24.724;2023-07-20T07:05:24;3.17;;;1.60;;
23728;SDS011;12045;60.214;24.724;2023-07-20T07:08:03;2.40;;;1.70;;
23728;SDS011;12045;60.214;24.724;2023-07-20T07:10:32;4.18;;;1.70;;
23728;SDS011;12045;60.214;24.724;2023-07-20T07:13:02;2.00;;;1.30;;
23728;SDS011;12045;60.214;24.724;2023-07-20T07:15:33;4.05;;;1.33;;
23728;SDS011;12045;60.214;24.724;2023-07-20T07:18:05;3.75;;;1.50;;
23728;SDS011;12045;60.214;24.724;2023-07-20T07:20:32;2.03;;;1.30;;
23728;SDS011;12045;60.214;24.724;2023-07-20T07:23:02;2.75;;;1.20;;
23728;SDS011;12045;60.214;24.724;2023-07-20T07:25:30;2.45;;;1.30;;
23728;SDS011;12045;60.214;24.724;2023-07-20T07:27:59;3.08;;;1.20;;
23728;SDS011;12045;60.214;24.724;2023-07-20T07:30:30;3.15;;;1.20;;
23728;SDS011;12045;60.214;24.724;2023-07-20T07:33:09;2.15;;;1.17;;
23728;SDS011;12045;60.214;24.724;2023-07-20T07:35:39;2.63;;;1.15;;
23728;SDS011;12045;60.214;24.724;2023-07-20T07:38:08;4.90;;;1.30;;
23728;SDS011;12045;60.214;24.724;2023-07-20T07:40:57;2.45;;;1.25;;
23728;SDS011;12045;60.214;24.724;2023-07-20T07:43:27;2.05;;;1.10;;
23728;SDS011;12045;60.214;24.724;2023-07-20T07:45:58;2.53;;;1.80;;
23728;SDS011;12045;60.214;24.724;2023-07-20T07:48:27;2.22;;;1.70;;
23728;SDS011;12045;60.214;24.724;2023-07-20T07:50:56;7.28;;;1.92;;
23728;SDS011;12045;60.214;24.724;2023-07-20T07:53:25;8.75;;;2.08;;
23728;SDS011;12045;60.214;24.724;2023-07-20T07:55:56;3.42;;;1.98;;
23728;SDS011;12045;60.214;24.724;2023-07-20T07:58:35;3.65;;;1.65;;
23728;SDS011;12045;60.214;24.724;2023-07-20T08:01:06;3.15;;;1.50;;
23728;SDS011;12045;60.214;24.724;2023-07-20T08:03:33;1.48;;;0.80;;
23728;SDS011;12045;60.214;24.724;2023-07-20T08:06:04;0.98;;;0.85;;
23728;SDS011;12045;60.214;24.724;2023-07-20T08:08:32;1.88;;;0.80;;
23728;SDS011;12045;60.214;24.724;2023-07-20T08:11:00;2.67;;;0.75;;
23728;SDS011;12045;60.214;24.724;2023-07-20T08:13:33;1.25;;;0.70;;
23728;SDS011;12045;60.214;24.724;2023-07-20T08:16:03;1.25;;;0.80;;
23728;SDS011;12045;60.214;24.724;2023-07-20T08:18:33;0.82;;;0.70;;
23728;SDS011;12045;60.214;24.724;2023-07-20T08:21:02;2.28;;;0.70;;
23728;SDS011;12045;60.214;24.724;2023-07-20T08:23:30;1.05;;;0.52;;
23728;SDS011;12045;60.214;24.724;2023-07-20T08:26:00;0.85;;;0.60;;
23728;SDS011;12045;60.214;24.724;2023-07-20T08:28:28;0.60;;;0.60;;
23728;SDS011;12045;60.214;24.724;2023-07-20T08:30:59;1.33;;;0.57;;
23728;SDS011;12045;60.214;24.724;2023-07-20T08:33:34;1.10;;;0.60;;
23728;SDS011;12045;60.214;24.724;2023-07-20T08:36:04;1.30;;;0.57;;
23728;SDS011;12045;60.214;24.724;2023-07-20T08:38:45;0.93;;;0.70;;
23728;SDS011;12045;60.214;24.724;2023-07-20T08:41:16;0.60;;;0.57;;
23728;SDS011;12045;60.214;24.724;2023-07-20T08:43:47;0.60;;;0.60;;
23728;SDS011;12045;60.214;24.724;2023-07-20T08:46:16;0.50;;;0.50;;
23728;SDS011;12045;60.214;24.724;2023-07-20T08:48:48;0.50;;;0.50;;
23728;SDS011;12045;60.214;24.724;2023-07-20T08:51:19;1.85;;;0.60;;
23728;SDS011;12045;60.214;24.724;2023-07-20T08:53:48;0.60;;;0.40;;
23728;SDS011;12045;60.214;24.724;2023-07-20T08:56:18;0.88;;;0.52;;
23728;SDS011;12045;60.214;24.724;2023-07-20T09:01:26;0.70;;;0.50;;
23728;SDS011;12045;60.214;24.724;2023-07-20T09:03:55;0.47;;;0.45;;
23728;SDS011;12045;60.214;24.724;2023-07-20T09:06:26;0.80;;;0.50;;
23728;SDS011;12045;60.214;24.724;2023-07-20T09:08:57;0.57;;;0.57;;
23728;SDS011;12045;60.214;24.724;2023-07-20T09:11:25;1.05;;;0.60;;
23728;SDS011;12045;60.214;24.724;2023-07-20T09:14:06;1.02;;;0.50;;
23728;SDS011;12045;60.214;24.724;2023-07-20T09:19:38;1.35;;;0.60;;
23728;SDS011;12045;60.214;24.724;2023-07-20T09:22:13;1.13;;;0.60;;
23728;SDS011;12045;60.214;24.724;2023-07-20T09:24:41;0.52;;;0.52;;
23728;SDS011;12045;60.214;24.724;2023-07-20T09:27:10;0.77;;;0.50;;
23728;SDS011;12045;60.214;24.724;2023-07-20T09:29:51;0.73;;;0.50;;
23728;SDS011;12045;60.214;24.724;2023-07-20T09:32:28;0.65;;;0.50;;
23728;SDS011;12045;60.214;24.724;2023-07-20T09:35:01;1.00;;;0.60;;
23728;SDS011;12045;60.214;24.724;2023-07-20T09:37:33;1.13;;;0.80;;
23728;SDS011;12045;60.214;24.724;2023-07-20T09:40:01;1.88;;;0.77;;
23728;SDS011;12045;60.214;24.724;2023-07-20T09:42:32;0.55;;;0.55;;
23728;SDS011;12045;60.214;24.724;2023-07-20T09:45:01;1.25;;;0.60;;
23728;SDS011;12045;60.214;24.724;2023-07-20T09:47:34;0.40;;;0.40;;
23728;SDS011;12045;60.214;24.724;2023-07-20T09:50:07;0.70;;;0.63;;
23728;SDS011;12045;60.214;24.724;2023-07-20T09:52:42;0.90;;;0.68;;
23728;SDS011;12045;60.214;24.724;2023-07-20T09:55:34;0.73;;;0.73;;
23728;SDS011;12045;60.214;24.724;2023-07-20T09:58:23;0.75;;;0.70;;
23728;SDS011;12045;60.214;24.724;2023-07-20T10:00:57;0.60;;;0.60;;
23728;SDS011;12045;60.214;24.724;2023-07-20T10:03:28;0.68;;;0.68;;
23728;SDS011;12045;60.214;24.724;2023-07-20T10:06:08;0.60;;;0.60;;
23728;SDS011;12045;60.214;24.724;2023-07-20T10:08:40;0.60;;;0.60;;
23728;SDS011;12045;60.214;24.724;2023-07-20T10:11:16;0.60;;;0.60;;
23728;SDS011;12045;60.214;24.724;2023-07-20T10:13:59;0.60;;;0.60;;
23728;SDS011;12045;60.214;24.724;2023-07-20T10:16:31;0.70;;;0.60;;
23728;SDS011;12045;60.214;24.724;2023-07-20T10:19:11;0.77;;;0.70;;
23728;SDS011;12045;60.214;24.724;2023-07-20T10:21:56;1.02;;;0.60;;
23728;SDS011;12045;60.214;24.724;2023-07-20T10:24:31;1.80;;;0.75;;
23728;SDS011;12045;60.214;24.724;2023-07-20T10:27:04;0.80;;;0.50;;
23728;SDS011;12045;60.214;24.724;2023-07-20T10:29:35;1.50;;;0.65;;
23728;SDS011;12045;60.214;24.724;2023-07-20T10:32:06;0.95;;;0.68;;
23728;SDS011;12045;60.214;24.724;2023-07-20T10:34:37;1.02;;;0.70;;
23728;SDS011;12045;60.214;24.724;2023-07-20T10:37:22;1.42;;;0.88;;
23728;SDS011;12045;60.214;24.724;2023-07-20T10:40:33;1.17;;;0.70;;
23728;SDS011;12045;60.214;24.724;2023-07-20T10:43:09;0.95;;;0.70;;
23728;SDS011;12045;60.214;24.724;2023-07-20T10:45:42;0.80;;;0.80;;
23728;SDS011;12045;60.214;24.724;2023-07-20T10:51:28;0.82;;;0.60;;
23728;SDS011;12045;60.214;24.724;2023-07-20T10:56:55;0.80;;;0.77;;
23728;SDS011;12045;60.214;24.724;2023-07-20T11:02:17;0.73;;;0.73;;
23728;SDS011;12045;60.214;24.724;2023-07-20T11:04:47;0.80;;;0.63;;
23728;SDS011;12045;60.214;24.724;2023-07-20T11:07:35;0.90;;;0.60;;
23728;SDS011;12045;60.214;24.724;2023-07-20T11:10:14;0.88;;;0.60;;
23728;SDS011;12045;60.214;24.724;2023-07-20T11:16:12;1.33;;;0.70;;
23728;SDS011;12045;60.214;24.724;2023-07-20T11:19:04;1.15;;;0.77;;
23728;SDS011;12045;60.214;24.724;2023-07-20T11:21:50;2.03;;;0.70;;
23728;SDS011;12045;60.214;24.724;2023-07-20T11:24:39;1.10;;;0.80;;
23728;SDS011;12045;60.214;24.724;2023-07-20T11:27:23;1.55;;;0.73;;
23728;SDS011;12045;60.214;24.724;2023-07-20T11:29:53;0.77;;;0.50;;
23728;SDS011;12045;60.214;24.724;2023-07-20T11:32:28;0.52;;;0.50;;
23728;SDS011;12045;60.214;24.724;2023-07-20T11:34:56;2.92;;;0.85;;
23728;SDS011;12045;60.214;24.724;2023-07-20T11:37:26;7.00;;;0.70;;
23728;SDS011;12045;60.214;24.724;2023-07-20T11:39:56;6.25;;;0.75;;
23728;SDS011;12045;60.214;24.724;2023-07-20T11:42:27;3.85;;;0.93;;
23728;SDS011;12045;60.214;24.724;2023-07-20T11:56:09;1.55;;;0.88;;
23728;SDS011;12045;60.214;24.724;2023-07-20T12:04:27;3.92;;;1.70;;
23728;SDS011;12045;60.214;24.724;2023-07-20T12:24:05;1.27;;;0.63;;
23728;SDS011;12045;60.214;24.724;2023-07-20T12:26:57;2.63;;;0.80;;
23728;SDS011;12045;60.214;24.724;2023-07-20T12:29:40;1.70;;;0.90;;
23728;SDS011;12045;60.214;24.724;2023-07-20T12:32:10;1.05;;;0.70;;
23728;SDS011;12045;60.214;24.724;2023-07-20T12:34:41;1.00;;;0.80;;
23728;SDS011;12045;60.214;24.724;2023-07-20T12:37:20;1.10;;;0.80;;
23728;SDS011;12045;60.214;24.724;2023-07-20T12:39:50;1.25;;;0.95;;
23728;SDS011;12045;60.214;24.724;2023-07-20T12:42:18;0.80;;;0.80;;
23728;SDS011;12045;60.214;24.724;2023-07-20T12:44:48;0.70;;;0.70;;
23728;SDS011;12045;60.214;24.724;2023-07-20T12:47:19;0.95;;;0.80;;
23728;SDS011;12045;60.214;24.724;2023-07-20T12:49:48;2.47;;;1.00;;
23728;SDS011;12045;60.214;24.724;2023-07-20T12:52:16;0.88;;;0.88;;
23728;SDS011;12045;60.214;24.724;2023-07-20T12:54:49;0.75;;;0.75;;
23728;SDS011;12045;60.214;24.724;2023-07-20T12:57:38;0.88;;;0.80;;
23728;SDS011;12045;60.214;24.724;2023-07-20T13:00:10;0.80;;;0.80;;
23728;SDS011;12045;60.214;24.724;2023-07-20T13:02:39;0.70;;;0.70;;
23728;SDS011;12045;60.214;24.724;2023-07-20T13:05:10;1.15;;;0.70;;
23728;SDS011;12045;60.214;24.724;2023-07-20T13:07:43;0.75;;;0.70;;
23728;SDS011;12045;60.214;24.724;2023-07-20T13:10:16;0.82;;;0.70;;
23728;SDS011;12045;60.214;24.724;2023-07-20T13:12:48;0.90;;;0.90;;
23728;SDS011;12045;60.214;24.724;2023-07-20T13:15:21;1.30;;;0.80;;
23728;SDS011;12045;60.214;24.724;2023-07-20T13:17:52;1.05;;;0.90;;
23728;SDS011;12045;60.214;24.724;2023-07-20T13:20:25;1.00;;;0.60;;
23728;SDS011;12045;60.214;24.724;2023-07-20T13:22:55;0.73;;;0.70;;
23728;SDS011;12045;60.214;24.724;2023-07-20T13:25:24;0.70;;;0.60;;
23728;SDS011;12045;60.214;24.724;2023-07-20T13:27:54;0.50;;;0.50;;
23728;SDS011;12045;60.214;24.724;2023-07-20T13:30:23;0.60;;;0.60;;
23728;SDS011;12045;60.214;24.724;2023-07-20T13:32:54;0.73;;;0.60;;
23728;SDS011;12045;60.214;24.724;2023-07-20T13:35:22;1.10;;;0.73;;
23728;SDS011;12045;60.214;24.724;2023-07-20T13:37:51;1.30;;;0.70;;
23728;SDS011;12045;60.214;24.724;2023-07-20T13:40:21;1.15;;;0.60;;
23728;SDS011;12045;60.214;24.724;2023-07-20T13:42:51;0.82;;;0.70;;
23728;SDS011;12045;60.214;24.724;2023-07-20T13:45:23;0.68;;;0.68;;
23728;SDS011;12045;60.214;24.724;2023-07-20T13:47:53;0.70;;;0.70;;
23728;SDS011;12045;60.214;24.724;2023-07-20T13:50:23;0.65;;;0.65;;
23728;SDS011;12045;60.214;24.724;2023-07-20T13:53:07;2.35;;;0.70;;
23728;SDS011;12045;60.214;24.724;2023-07-20T13:55:42;0.85;;;0.70;;
23728;SDS011;12045;60.214;24.724;2023-07-20T13:58:12;1.13;;;0.90;;
23728;SDS011;12045;60.214;24.724;2023-07-20T14:00:43;1.13;;;0.70;;
23728;SDS011;12045;60.214;24.724;2023-07-20T14:03:14;1.50;;;0.70;;
23728;SDS011;12045;60.214;24.724;2023-07-20T14:05:47;2.65;;;0.75;;
23728;SDS011;12045;60.214;24.724;2023-07-20T14:08:20;0.70;;;0.70;;
23728;SDS011;12045;60.214;24.724;2023-07-20T14:10:48;0.70;;;0.70;;
23728;SDS011;12045;60.214;24.724;2023-07-20T14:13:19;0.90;;;0.65;;
23728;SDS011;12045;60.214;24.724;2023-07-20T14:30:15;0.85;;;0.70;;
23728;SDS011;12045;60.214;24.724;2023-07-20T14:32:44;0.77;;;0.77;;
23728;SDS011;12045;60.214;24.724;2023-07-20T14:35:21;0.52;;;0.47;;
23728;SDS011;12045;60.214;24.724;2023-07-20T14:37:54;2.67;;;0.77;;
23728;SDS011;12045;60.214;24.724;2023-07-20T14:40:25;0.90;;;0.70;;
23728;SDS011;12045;60.214;24.724;2023-07-20T14:42:53;0.47;;;0.43;;
23728;SDS011;12045;60.214;24.724;2023-07-20T14:45:23;0.70;;;0.70;;
23728;SDS011;12045;60.214;24.724;2023-07-20T14:56:09;1.77;;;0.82;;
23728;SDS011;12045;60.214;24.724;2023-07-20T14:58:39;0.70;;;0.60;;
23728;SDS011;12045;60.214;24.724;2023-07-20T15:01:16;0.50;;;0.50;;
23728;SDS011;12045;60.214;24.724;2023-07-20T15:03:44;0.70;;;0.70;;
23728;SDS011;12045;60.214;24.724;2023-07-20T15:09:08;3.15;;;0.80;;
23728;SDS011;12045;60.214;24.724;2023-07-20T15:11:38;0.85;;;0.68;;
23728;SDS011;12045;60.214;24.724;2023-07-20T15:14:07;0.77;;;0.73;;
23728;SDS011;12045;60.214;24.724;2023-07-20T15:19:12;1.38;;;0.90;;
23728;SDS011;12045;60.214;24.724;2023-07-20T15:21:41;1.95;;;0.70;;
23728;SDS011;12045;60.214;24.724;2023-07-20T15:26:45;2.42;;;0.77;;
23728;SDS011;12045;60.214;24.724;2023-07-20T15:35:02;0.90;;;0.73;;
23728;SDS011;12045;60.214;24.724;2023-07-20T15:44:03;0.70;;;0.70;;
23728;SDS011;12045;60.214;24.724;2023-07-20T15:51:55;2.10;;;0.93;;
23728;SDS011;12045;60.214;24.724;2023-07-20T16:02:56;1.55;;;0.80;;
23728;SDS011;12045;60.214;24.724;2023-07-20T16:05:25;1.48;;;1.00;;
23728;SDS011;12045;60.214;24.724;2023-07-20T16:07:58;1.45;;;0.80;;
23728;SDS011;12045;60.214;24.724;2023-07-20T16:10:26;0.80;;;0.80;;
23728;SDS011;12045;60.214;24.724;2023-07-20T16:21:02;0.90;;;0.70;;
23728;SDS011;12045;60.214;24.724;2023-07-20T16:29:20;0.93;;;0.73;;
23728;SDS011;12045;60.214;24.724;2023-07-20T16:31:52;1.27;;;0.80;;
23728;SDS011;12045;60.214;24.724;2023-07-20T16:34:30;1.10;;;0.80;;
23728;SDS011;12045;60.214;24.724;2023-07-20T16:37:15;2.28;;;0.90;;
23728;SDS011;12045;60.214;24.724;2023-07-20T16:39:50;1.02;;;0.85;;
23728;SDS011;12045;60.214;24.724;2023-07-20T16:42:19;0.90;;;0.80;;
23728;SDS011;12045;60.214;24.724;2023-07-20T16:47:38;2.40;;;0.98;;
23728;SDS011;12045;60.214;24.724;2023-07-20T16:52:57;3.03;;;0.75;;
23728;SDS011;12045;60.214;24.724;2023-07-20T16:55:26;0.77;;;0.75;;
23728;SDS011;12045;60.214;24.724;2023-07-20T16:58:07;1.75;;;1.00;;
23728;SDS011;12045;60.214;24.724;2023-07-20T17:00:35;0.98;;;0.80;;
23728;SDS011;12045;60.214;24.724;2023-07-20T17:03:06;2.60;;;1.00;;
23728;SDS011;12045;60.214;24.724;2023-07-20T17:05:35;2.50;;;0.85;;
23728;SDS011;12045;60.214;24.724;2023-07-20T17:13:41;1.25;;;0.90;;
23728;SDS011;12045;60.214;24.724;2023-07-20T17:16:10;2.03;;;0.65;;
23728;SDS011;12045;60.214;24.724;2023-07-20T17:21:16;1.10;;;0.80;;
23728;SDS011;12045;60.214;24.724;2023-07-20T17:23:48;0.70;;;0.70;;
23728;SDS011;12045;60.214;24.724;2023-07-20T17:26:20;1.00;;;0.77;;
23728;SDS011;12045;60.214;24.724;2023-07-20T17:28:50;1.42;;;1.00;;
23728;SDS011;12045;60.214;24.724;2023-07-20T17:31:19;1.80;;;0.90;;
23728;SDS011;12045;60.214;24.724;2023-07-20T17:33:49;1.58;;;0.80;;
23728;SDS011;12045;60.214;24.724;2023-07-20T17:36:20;7.30;;;1.00;;
23728;SDS011;12045;60.214;24.724;2023-07-20T17:38:52;1.55;;;1.00;;
23728;SDS011;12045;60.214;24.724;2023-07-20T17:41:25;2.53;;;1.00;;
23728;SDS011;12045;60.214;24.724;2023-07-20T17:43:55;1.67;;;0.85;;
23728;SDS011;12045;60.214;24.724;2023-07-20T17:46:27;2.88;;;0.90;;
23728;SDS011;12045;60.214;24.724;2023-07-20T17:49:02;1.80;;;0.90;;
23728;SDS011;12045;60.214;24.724;2023-07-20T17:51:34;1.00;;;0.80;;
23728;SDS011;12045;60.214;24.724;2023-07-20T17:59:51;1.00;;;0.90;;
23728;SDS011;12045;60.214;24.724;2023-07-20T18:02:25;2.40;;;1.00;;
23728;SDS011;12045;60.214;24.724;2023-07-20T18:13:12;3.20;;;1.05;;
23728;SDS011;12045;60.214;24.724;2023-07-20T18:15:39;2.47;;;1.08;;
23728;SDS011;12045;60.214;24.724;2023-07-20T18:18:10;2.13;;;1.17;;
23728;SDS011;12045;60.214;24.724;2023-07-20T18:23:15;2.35;;;1.40;;
23728;SDS011;12045;60.214;24.724;2023-07-20T18:25:43;1.75;;;1.10;;
23728;SDS011;12045;60.214;24.724;2023-07-20T18:30:54;1.98;;;1.17;;
23728;SDS011;12045;60.214;24.724;2023-07-20T18:33:22;1.40;;;1.10;;